Time;durP1;ratioP1;P1;durP2;ratioP2;P2;SDS_P1;SDS_P2;PMS_P1;PMS_P2;Temp;Humidity;BMP_temperature;BMP_pressure;BME280_temperature;BME280_humidity;BME280_pressure;Samples;Min_cycle;Max_cycle;Signal;HPM_P1;HPM_P2
2022/04/11 00:02:18;;;;;;;3.90;3.50;;;5.90;79.00;;;;;;4980910;28;20210;-82
2022/04/11 00:04:44;;;;;;;4.00;3.70;;;5.90;79.20;;;;;;4986917;28;20222;-81
2022/04/11 00:07:10;;;;;;;4.77;3.83;;;6.00;79.30;;;;;;4987120;28;20202;-81
2022/04/11 00:09:35;;;;;;;4.40;3.73;;;5.90;78.60;;;;;;4975514;28;20211;-81
2022/04/11 00:12:01;;;;;;;4.83;3.77;;;5.80;78.90;;;;;;4971688;28;20191;-81
2022/04/11 00:14:27;;;;;;;4.07;3.77;;;5.80;79.00;;;;;;4976779;28;20238;-81
2022/04/11 00:16:53;;;;;;;4.10;3.70;;;5.60;79.40;;;;;;4974452;28;20223;-81
2022/04/11 00:19:19;;;;;;;4.33;3.40;;;5.60;80.00;;;;;;4972315;28;20589;-81
2022/04/11 00:21:44;;;;;;;4.47;3.70;;;5.50;80.10;;;;;;4977255;28;20271;-82
2022/04/11 00:24:10;;;;;;;3.83;3.53;;;5.50;80.60;;;;;;4980506;28;20226;-81
2022/04/11 00:26:36;;;;;;;3.90;3.57;;;5.40;80.80;;;;;;4976354;28;20551;-81
2022/04/11 00:29:02;;;;;;;4.43;3.67;;;5.40;81.10;;;;;;4979268;28;20195;-82
2022/04/11 00:31:31;;;;;;;4.30;3.80;;;5.50;80.90;;;;;;4971787;28;20627;-81
2022/04/11 00:33:57;;;;;;;4.83;3.83;;;5.50;80.50;;;;;;4979201;28;20211;-82
2022/04/11 00:36:22;;;;;;;4.53;4.00;;;5.60;80.40;;;;;;4982267;28;20197;-82
2022/04/11 00:38:48;;;;;;;4.27;3.87;;;5.50;80.20;;;;;;4982570;28;20196;-81
2022/04/11 00:41:14;;;;;;;4.43;4.03;;;5.50;79.70;;;;;;4974470;28;20674;-81
2022/04/11 00:43:40;;;;;;;4.83;3.90;;;5.50;79.80;;;;;;4973946;28;20689;-81
2022/04/11 00:46:07;;;;;;;4.87;3.67;;;5.50;79.80;;;;;;4973611;28;20187;-82
2022/04/11 00:48:34;;;;;;;6.13;4.03;;;5.50;79.70;;;;;;4973820;28;20180;-81
2022/04/11 00:51:10;;;;;;;5.40;4.23;;;5.50;79.50;;;;;;4971617;28;20211;-81
2022/04/11 00:53:39;;;;;;;4.20;3.80;;;5.50;79.30;;;;;;4975438;28;20207;-81
2022/04/11 00:56:09;;;;;;;7.77;4.33;;;5.40;79.80;;;;;;4971629;28;20202;-81
2022/04/11 00:58:35;;;;;;;4.27;3.40;;;5.30;80.30;;;;;;4978488;28;20250;-80
2022/04/11 01:01:02;;;;;;;4.77;4.37;;;5.30;81.20;;;;;;4966914;28;20203;-80
2022/04/11 01:03:28;;;;;;;5.33;3.90;;;5.20;79.70;;;;;;4971269;28;20208;-81
2022/04/11 01:05:53;;;;;;;5.40;4.03;;;5.00;82.10;;;;;;4983928;28;20258;-81
2022/04/11 01:08:19;;;;;;;4.53;4.13;;;4.90;82.60;;;;;;4976839;28;20717;-81
2022/04/11 01:10:45;;;;;;;4.63;4.23;;;5.10;82.60;;;;;;4991538;28;20188;-81
2022/04/11 01:13:12;;;;;;;5.13;4.20;;;5.10;82.10;;;;;;4989200;28;20214;-81
2022/04/11 01:15:37;;;;;;;5.37;4.57;;;5.10;81.70;;;;;;4994050;28;20206;-81
2022/04/11 01:18:04;;;;;;;3.90;3.50;;;5.20;81.70;;;;;;4991704;28;20230;-81
2022/04/11 01:20:30;;;;;;;5.30;4.23;;;5.20;81.50;;;;;;4993208;28;20257;-82
2022/04/11 01:22:56;;;;;;;4.20;3.53;;;5.20;82.30;;;;;;4990247;28;20678;-82
2022/04/11 01:25:21;;;;;;;4.40;4.00;;;5.30;81.30;;;;;;4991881;28;20201;-82
2022/04/11 01:27:47;;;;;;;5.30;4.80;;;5.20;81.90;;;;;;4978569;28;20358;-82
2022/04/11 01:30:15;;;;;;;5.23;4.73;;;5.20;82.50;;;;;;4974595;28;20191;-82
2022/04/11 01:32:41;;;;;;;4.87;4.40;;;5.20;82.80;;;;;;4983070;28;20191;-81
2022/04/11 01:35:22;;;;;;;4.03;3.73;;;5.20;84.20;;;;;;4972980;28;20191;-82
2022/04/11 01:37:48;;;;;;;5.47;4.00;;;5.20;82.80;;;;;;4974764;28;20565;-82
2022/04/11 01:40:14;;;;;;;5.03;4.07;;;5.20;81.90;;;;;;4975909;28;20231;-82
2022/04/11 01:42:39;;;;;;;5.13;4.13;;;5.20;82.40;;;;;;4969399;28;20211;-82
2022/04/11 01:45:09;;;;;;;5.73;3.97;;;5.10;82.70;;;;;;4967786;28;20651;-82
2022/04/11 01:47:34;;;;;;;4.43;4.03;;;5.10;82.70;;;;;;4977524;28;20187;-82
2022/04/11 01:50:00;;;;;;;4.93;4.53;;;5.20;82.60;;;;;;4969507;28;20210;-82
2022/04/11 01:52:26;;;;;;;4.30;3.90;;;5.20;82.90;;;;;;4973611;28;20199;-81
2022/04/11 01:54:51;;;;;;;5.43;4.37;;;5.30;83.20;;;;;;4973652;28;20243;-81
2022/04/11 01:57:17;;;;;;;4.80;4.30;;;5.20;82.70;;;;;;4971925;28;20238;-82
2022/04/11 01:59:43;;;;;;;5.43;4.87;;;5.20;83.10;;;;;;4974281;28;20251;-82
2022/04/11 02:02:08;;;;;;;5.27;4.77;;;5.20;83.20;;;;;;4971228;28;20238;-82
2022/04/11 02:04:34;;;;;;;7.57;5.07;;;5.10;83.40;;;;;;4987318;28;20202;-82
2022/04/11 02:06:59;;;;;;;4.77;4.37;;;4.80;84.00;;;;;;5001320;28;20191;-82
2022/04/11 02:09:25;;;;;;;5.40;4.90;;;4.60;85.90;;;;;;4983922;28;20285;-81
2022/04/11 02:11:51;;;;;;;4.77;4.37;;;4.50;87.80;;;;;;4973570;28;20206;-81
2022/04/11 02:14:16;;;;;;;5.20;4.67;;;4.60;87.60;;;;;;4973871;28;20227;-82
2022/04/11 02:16:42;;;;;;;5.87;5.27;;;4.70;88.60;;;;;;4973996;28;20195;-82
2022/04/11 02:19:07;;;;;;;7.13;4.73;;;4.70;87.80;;;;;;4976600;28;20187;-81
2022/04/11 02:21:34;;;;;;;4.80;4.40;;;4.80;87.90;;;;;;4977402;28;20211;-81
2022/04/11 02:23:59;;;;;;;4.53;3.80;;;4.90;87.50;;;;;;4977333;28;20675;-82
2022/04/11 02:26:25;;;;;;;5.97;4.60;;;4.90;86.90;;;;;;4983472;28;20230;-82
2022/04/11 02:28:51;;;;;;;4.80;4.10;;;5.00;87.00;;;;;;4977831;28;20198;-82
2022/04/11 02:31:16;;;;;;;5.03;4.40;;;5.10;86.50;;;;;;4974339;28;20199;-81
2022/04/11 02:33:42;;;;;;;5.47;5.03;;;5.10;86.60;;;;;;4974075;28;20246;-81
2022/04/11 02:36:08;;;;;;;4.63;3.77;;;5.10;85.50;;;;;;4974863;28;20195;-81
2022/04/11 02:38:33;;;;;;;5.33;4.83;;;5.00;87.00;;;;;;4978296;28;20737;-81
2022/04/11 02:40:59;;;;;;;4.40;4.00;;;5.00;87.10;;;;;;4982838;28;20261;-80
2022/04/11 02:43:25;;;;;;;4.83;4.33;;;5.10;86.80;;;;;;4996045;28;20379;-79
2022/04/11 02:45:50;;;;;;;5.00;4.60;;;5.10;86.60;;;;;;4999815;28;20176;-80
2022/04/11 02:48:16;;;;;;;6.40;4.50;;;5.20;86.50;;;;;;4999606;28;20171;-80
2022/04/11 02:50:41;;;;;;;5.17;4.77;;;5.10;86.70;;;;;;4981481;28;20281;-80
2022/04/11 02:53:07;;;;;;;4.73;4.07;;;4.90;87.20;;;;;;4969725;28;20226;-81
2022/04/11 02:55:33;;;;;;;4.70;4.30;;;4.80;88.60;;;;;;4970896;28;20242;-81
2022/04/11 02:57:58;;;;;;;5.03;4.60;;;4.70;89.60;;;;;;4973857;28;20191;-81
2022/04/11 03:00:24;;;;;;;5.37;3.90;;;4.60;90.50;;;;;;4971664;28;20648;-81
2022/04/11 03:02:50;;;;;;;6.13;3.83;;;4.50;91.60;;;;;;4974188;28;20310;-81
2022/04/11 03:05:16;;;;;;;4.97;4.40;;;4.50;92.50;;;;;;4970890;28;20191;-81
2022/04/11 03:07:42;;;;;;;5.77;4.20;;;4.50;92.50;;;;;;4957133;28;20238;-81
2022/04/11 03:10:08;;;;;;;5.17;4.67;;;4.40;93.30;;;;;;4975429;28;20183;-81
2022/04/11 03:12:36;;;;;;;4.80;4.30;;;4.30;93.40;;;;;;4973547;28;20191;-81
2022/04/11 03:15:03;;;;;;;4.67;4.03;;;4.20;93.90;;;;;;4977386;28;20229;-81
2022/04/11 03:17:29;;;;;;;4.57;3.93;;;4.20;94.80;;;;;;4973394;28;20195;-81
2022/04/11 03:19:55;;;;;;;4.73;3.80;;;4.20;95.70;;;;;;4976168;28;20191;-81
2022/04/11 03:22:20;;;;;;;5.80;4.10;;;4.30;95.60;;;;;;4991181;28;20214;-81
2022/04/11 03:24:46;;;;;;;4.87;4.00;;;4.30;94.90;;;;;;4988226;28;20212;-80
2022/04/11 03:27:12;;;;;;;5.30;4.67;;;4.40;95.60;;;;;;4987878;28;20217;-80
2022/04/11 03:29:38;;;;;;;5.87;4.17;;;4.30;94.50;;;;;;4980747;28;20259;-80
2022/04/11 03:32:04;;;;;;;6.30;4.40;;;4.30;95.30;;;;;;4977827;28;20292;-80
2022/04/11 03:34:30;;;;;;;4.57;3.83;;;4.20;94.60;;;;;;4970155;28;20219;-81
2022/04/11 03:36:55;;;;;;;4.83;3.77;;;4.20;95.30;;;;;;4976923;28;20229;-80
2022/04/11 03:39:21;;;;;;;4.27;3.87;;;4.20;94.60;;;;;;4975896;28;20206;-80
2022/04/11 03:41:47;;;;;;;4.40;3.70;;;4.20;94.40;;;;;;4972540;28;20215;-81
2022/04/11 03:44:12;;;;;;;4.60;4.00;;;4.10;94.30;;;;;;4976059;28;20211;-80
2022/04/11 03:46:39;;;;;;;5.30;3.90;;;4.10;94.80;;;;;;4974923;28;20254;-82
2022/04/11 03:49:05;;;;;;;4.67;4.20;;;4.00;95.30;;;;;;4982670;28;20191;-81
2022/04/11 03:51:31;;;;;;;4.47;4.07;;;4.00;95.70;;;;;;4971857;28;20274;-81
2022/04/11 03:53:57;;;;;;;4.80;4.17;;;4.00;97.00;;;;;;4966146;28;20216;-80
2022/04/11 03:56:23;;;;;;;4.07;3.63;;;4.10;97.30;;;;;;4970899;28;20202;-80
2022/04/11 03:58:48;;;;;;;4.47;4.07;;;4.20;96.40;;;;;;4976015;28;20227;-80
2022/04/11 04:01:14;;;;;;;5.60;3.83;;;4.00;95.00;;;;;;4975336;28;20219;-81
2022/04/11 04:03:40;;;;;;;3.80;3.43;;;4.10;96.70;;;;;;4964034;28;20211;-79
2022/04/11 04:06:06;;;;;;;5.90;4.17;;;4.20;96.00;;;;;;4974206;28;20191;-80
2022/04/11 04:08:32;;;;;;;4.27;3.70;;;4.30;94.70;;;;;;4973638;28;20207;-80
2022/04/11 04:10:58;;;;;;;4.83;3.43;;;4.40;94.40;;;;;;4967614;28;20290;-82
2022/04/11 04:13:24;;;;;;;6.13;3.70;;;4.50;93.50;;;;;;4974674;28;20222;-82
2022/04/11 04:15:50;;;;;;;4.47;3.73;;;4.50;92.80;;;;;;4972327;28;20214;-82
2022/04/11 04:18:16;;;;;;;4.33;3.93;;;4.50;92.20;;;;;;4977207;28;20217;-82
2022/04/11 04:20:41;;;;;;;4.57;3.70;;;4.60;91.60;;;;;;4974429;28;20618;-82
2022/04/11 04:23:08;;;;;;;3.90;3.50;;;4.60;91.30;;;;;;4970265;28;20218;-82
2022/04/11 04:25:34;;;;;;;4.13;3.70;;;4.60;91.10;;;;;;4963697;28;20187;-82
2022/04/11 04:28:00;;;;;;;5.27;3.90;;;4.70;90.70;;;;;;4971777;28;20214;-82
2022/04/11 04:30:28;;;;;;;5.07;4.00;;;4.80;90.70;;;;;;4977205;28;20206;-82
2022/04/11 04:32:54;;;;;;;11.37;8.67;;;4.80;88.80;;;;;;4967997;28;20274;-81
2022/04/11 04:35:20;;;;;;;9.63;8.63;;;4.80;88.10;;;;;;4966689;28;20230;-82
2022/04/11 04:37:46;;;;;;;13.57;10.43;;;4.70;87.40;;;;;;4981990;28;20267;-82
2022/04/11 04:40:11;;;;;;;17.17;15.37;;;4.60;87.40;;;;;;4971701;28;20590;-82
2022/04/11 04:42:37;;;;;;;23.00;18.87;;;4.70;87.80;;;;;;4970206;28;20237;-82
2022/04/11 04:45:05;;;;;;;16.60;14.90;;;4.60;88.10;;;;;;4975528;28;20214;-82
2022/04/11 04:47:30;;;;;;;14.50;13.00;;;4.60;88.30;;;;;;4967396;28;20673;-82
2022/04/11 04:49:56;;;;;;;12.70;11.60;;;4.60;88.30;;;;;;4961955;28;20180;-82
2022/04/11 04:52:21;;;;;;;6.30;5.70;;;4.70;88.00;;;;;;4970316;28;20195;-82
2022/04/11 04:54:47;;;;;;;7.73;6.50;;;4.70;87.30;;;;;;4967714;28;20863;-82
2022/04/11 04:57:13;;;;;;;6.10;5.33;;;4.70;87.90;;;;;;4981243;28;20247;-81
2022/04/11 04:59:38;;;;;;;12.07;6.90;;;4.70;87.20;;;;;;4996587;28;20179;-81
2022/04/11 05:02:04;;;;;;;9.57;8.77;;;4.70;87.60;;;;;;4972319;28;20216;-82
2022/04/11 05:04:30;;;;;;;6.93;6.23;;;4.70;87.80;;;;;;4977871;28;20257;-82
2022/04/11 05:06:56;;;;;;;8.37;5.77;;;4.70;87.60;;;;;;4972710;28;20196;-81
2022/04/11 05:09:21;;;;;;;6.87;5.97;;;4.70;87.30;;;;;;4977417;28;20262;-82
2022/04/11 05:11:47;;;;;;;8.60;6.73;;;4.70;87.90;;;;;;4979506;28;20650;-82
2022/04/11 05:14:13;;;;;;;9.40;8.47;;;4.80;87.90;;;;;;4980851;28;20230;-82
2022/04/11 05:16:38;;;;;;;8.10;7.27;;;4.80;87.10;;;;;;4985248;28;20195;-82
2022/04/11 05:19:04;;;;;;;6.53;5.93;;;4.80;86.80;;;;;;4972133;28;20214;-82
2022/04/11 05:21:30;;;;;;;6.60;5.90;;;4.90;87.10;;;;;;4983990;28;20214;-82
2022/04/11 05:23:56;;;;;;;8.07;7.27;;;4.90;87.00;;;;;;4986949;28;20241;-82
2022/04/11 05:26:22;;;;;;;8.93;7.97;;;5.00;86.20;;;;;;4981646;28;20190;-82
2022/04/11 05:28:49;;;;;;;8.90;7.07;;;5.00;86.00;;;;;;4982304;28;20198;-79
2022/04/11 05:31:15;;;;;;;9.03;6.57;;;5.00;85.90;;;;;;4984815;28;20234;-79
2022/04/11 05:33:41;;;;;;;8.83;7.67;;;5.00;86.00;;;;;;4985085;28;20209;-80
2022/04/11 05:36:07;;;;;;;8.93;8.03;;;4.90;85.80;;;;;;4985160;28;20468;-79
2022/04/11 05:38:33;;;;;;;8.27;7.40;;;4.90;85.90;;;;;;4984412;28;20205;-79
2022/04/11 05:40:59;;;;;;;9.87;7.00;;;4.90;86.70;;;;;;4986209;28;20191;-80
2022/04/11 05:43:25;;;;;;;8.63;7.33;;;5.00;86.30;;;;;;4850342;28;106362;-80
2022/04/11 05:45:50;;;;;;;7.77;6.73;;;4.90;86.50;;;;;;4944091;29;20200;-80
2022/04/11 05:48:16;;;;;;;8.37;7.07;;;4.90;86.20;;;;;;4951992;29;20222;-79
2022/04/11 05:50:42;;;;;;;6.70;6.00;;;4.90;86.40;;;;;;4939082;29;20196;-80
2022/04/11 05:53:07;;;;;;;8.10;6.20;;;4.90;86.70;;;;;;4963822;28;20227;-80
2022/04/11 05:55:33;;;;;;;7.67;6.20;;;4.90;86.70;;;;;;4942280;28;20195;-80
2022/04/11 05:57:59;;;;;;;8.27;6.73;;;4.80;87.60;;;;;;4940475;29;20603;-81
2022/04/11 06:00:25;;;;;;;6.40;5.80;;;4.80;88.00;;;;;;4943387;29;20188;-79
2022/04/11 06:02:51;;;;;;;6.50;5.50;;;4.80;88.30;;;;;;4935285;29;20326;-80
2022/04/11 06:05:20;;;;;;;5.87;5.27;;;4.80;88.00;;;;;;4922995;29;20628;-80
2022/04/11 06:07:45;;;;;;;6.23;5.40;;;4.80;88.60;;;;;;4946254;29;20481;-80
2022/04/11 06:10:12;;;;;;;9.77;5.97;;;4.80;88.20;;;;;;4940746;28;20715;-80
2022/04/11 06:12:38;;;;;;;7.33;6.63;;;5.00;88.10;;;;;;4937045;29;20191;-80
2022/04/11 06:15:05;;;;;;;6.37;5.77;;;5.00;87.20;;;;;;4939915;29;20216;-80
2022/04/11 06:17:30;;;;;;;6.63;5.93;;;5.00;87.70;;;;;;4933401;29;20196;-80
2022/04/11 06:19:58;;;;;;;6.60;5.87;;;5.10;86.90;;;;;;4931289;29;20200;-80
2022/04/11 06:22:24;;;;;;;6.40;5.83;;;5.20;87.70;;;;;;4940354;29;20745;-80
2022/04/11 06:24:51;;;;;;;5.73;5.23;;;5.20;86.90;;;;;;4938366;29;20239;-80
2022/04/11 06:27:20;;;;;;;6.93;5.60;;;5.20;87.20;;;;;;4926651;29;20239;-80
2022/04/11 06:29:46;;;;;;;6.67;5.97;;;5.30;87.40;;;;;;4937862;29;20385;-79
2022/04/11 06:32:12;;;;;;;7.50;5.70;;;5.30;87.50;;;;;;4943406;29;20223;-80
2022/04/11 06:34:38;;;;;;;7.57;5.80;;;5.40;86.20;;;;;;4968650;28;20207;-80
2022/04/11 06:37:04;;;;;;;6.90;5.70;;;5.50;85.80;;;;;;4951265;28;20230;-79
2022/04/11 06:39:30;;;;;;;5.67;5.10;;;5.60;84.20;;;;;;4957153;29;20207;-79
2022/04/11 06:41:56;;;;;;;6.77;6.00;;;5.70;84.90;;;;;;4955939;28;20222;-79
2022/04/11 06:44:22;;;;;;;6.43;5.53;;;5.70;84.90;;;;;;4954560;29;20299;-80
2022/04/11 06:46:48;;;;;;;7.87;7.17;;;5.90;82.30;;;;;;4936054;29;20283;-80
2022/04/11 06:49:14;;;;;;;9.23;6.40;;;6.00;82.20;;;;;;4930048;29;20252;-80
2022/04/11 06:51:41;;;;;;;6.63;5.73;;;6.10;81.40;;;;;;4927734;29;20197;-80
2022/04/11 06:54:06;;;;;;;7.13;6.43;;;6.20;81.50;;;;;;4927028;29;20213;-80
2022/04/11 06:56:32;;;;;;;6.43;5.33;;;6.20;80.90;;;;;;4931362;29;20206;-80
2022/04/11 06:58:58;;;;;;;5.77;5.27;;;6.40;79.40;;;;;;4930709;29;20446;-80
2022/04/11 07:01:23;;;;;;;6.20;5.13;;;6.50;78.60;;;;;;4924342;29;20276;-80
2022/04/11 07:03:51;;;;;;;5.90;5.30;;;6.60;77.70;;;;;;4933240;29;20216;-80
2022/04/11 07:06:17;;;;;;;7.50;4.67;;;6.70;78.00;;;;;;4929457;29;20291;-80
2022/04/11 07:08:43;;;;;;;7.83;5.63;;;6.80;76.90;;;;;;4941524;29;20684;-80
2022/04/11 07:11:08;;;;;;;6.17;4.63;;;6.80;76.70;;;;;;4930189;29;20192;-80
2022/04/11 07:13:34;;;;;;;6.20;5.10;;;7.00;75.70;;;;;;4941770;29;20254;-80
2022/04/11 07:16:01;;;;;;;5.33;4.70;;;7.10;74.40;;;;;;4943388;29;20875;-80
2022/04/11 07:18:27;;;;;;;6.30;5.50;;;7.20;75.20;;;;;;4932123;29;20268;-80
2022/04/11 07:20:56;;;;;;;7.90;6.57;;;7.30;73.80;;;;;;4924407;29;20196;-80
2022/04/11 07:23:22;;;;;;;9.90;8.83;;;7.40;73.50;;;;;;4933316;29;20296;-80
2022/04/11 07:25:48;;;;;;;27.97;19.03;;;7.50;71.90;;;;;;4929971;29;20181;-80
2022/04/11 07:28:14;;;;;;;20.80;16.57;;;7.60;72.10;;;;;;4925754;29;20244;-80
2022/04/11 07:30:40;;;;;;;14.20;12.03;;;7.70;71.30;;;;;;4935287;29;20197;-80
2022/04/11 07:33:07;;;;;;;7.03;6.33;;;7.80;71.80;;;;;;4937372;29;20292;-80
2022/04/11 07:35:33;;;;;;;7.33;6.30;;;7.90;71.20;;;;;;4939331;29;20188;-80
2022/04/11 07:38:00;;;;;;;6.47;5.50;;;8.00;69.50;;;;;;4934604;29;20197;-80
2022/04/11 07:40:26;;;;;;;9.50;5.70;;;8.10;70.40;;;;;;4918685;29;20189;-80
2022/04/11 07:42:52;;;;;;;6.17;4.87;;;8.20;69.00;;;;;;4930057;29;20209;-80
2022/04/11 07:45:19;;;;;;;5.10;4.60;;;8.30;70.00;;;;;;4953319;28;20248;-79
2022/04/11 07:47:45;;;;;;;6.10;5.50;;;8.50;69.20;;;;;;4956537;28;20203;-79
2022/04/11 07:50:11;;;;;;;7.80;4.80;;;8.50;66.90;;;;;;4943090;29;20216;-80
2022/04/11 07:52:38;;;;;;;6.30;5.20;;;8.60;68.40;;;;;;4935399;29;20287;-80
2022/04/11 07:55:04;;;;;;;6.30;5.57;;;8.80;65.20;;;;;;4933443;29;20698;-80
2022/04/11 07:57:30;;;;;;;5.63;5.00;;;8.90;65.90;;;;;;4934016;29;20224;-80
2022/04/11 07:59:56;;;;;;;6.13;5.00;;;9.00;65.90;;;;;;4928216;29;20221;-80
2022/04/11 08:02:25;;;;;;;4.90;4.07;;;9.10;65.40;;;;;;4928964;29;20223;-80
2022/04/11 08:04:52;;;;;;;5.93;4.60;;;9.30;63.00;;;;;;4928888;29;20216;-80
2022/04/11 08:07:17;;;;;;;6.00;4.00;;;9.40;62.20;;;;;;4937591;29;20288;-80
2022/04/11 08:09:43;;;;;;;4.53;3.57;;;9.50;61.70;;;;;;4938017;29;20208;-80
2022/04/11 08:12:09;;;;;;;5.63;5.00;;;9.70;59.20;;;;;;4924662;29;20228;-80
2022/04/11 08:14:35;;;;;;;4.80;3.67;;;9.80;59.20;;;;;;4929292;29;20234;-80
2022/04/11 08:17:03;;;;;;;4.20;3.80;;;9.80;59.80;;;;;;4928529;29;20552;-80
2022/04/11 08:19:32;;;;;;;3.87;3.43;;;9.90;59.50;;;;;;4930413;29;20227;-80
2022/04/11 08:21:58;;;;;;;3.80;3.40;;;10.10;58.80;;;;;;4921713;29;20303;-80
2022/04/11 08:24:23;;;;;;;10.70;3.53;;;10.40;58.00;;;;;;4933113;29;20236;-80
2022/04/11 08:26:49;;;;;;;3.83;3.27;;;10.50;56.20;;;;;;4932894;29;20193;-80
2022/04/11 08:29:17;;;;;;;3.67;3.30;;;10.40;56.50;;;;;;4937430;29;20616;-80
2022/04/11 08:31:43;;;;;;;4.80;4.30;;;10.50;56.20;;;;;;4936104;29;20889;-79
2022/04/11 08:34:09;;;;;;;3.97;3.60;;;10.70;54.90;;;;;;4924763;29;20267;-80
2022/04/11 08:36:35;;;;;;;5.20;3.60;;;10.90;54.30;;;;;;4932015;29;20871;-83
2022/04/11 08:39:01;;;;;;;5.30;3.47;;;11.10;55.00;;;;;;4934586;29;20198;-81
2022/04/11 08:41:36;;;;;;;3.27;2.97;;;11.20;54.50;;;;;;4928514;29;20306;-82
2022/04/11 08:44:06;;;;;;;5.37;3.10;;;11.40;54.00;;;;;;4935245;29;20811;-80
2022/04/11 08:46:35;;;;;;;3.07;2.57;;;11.60;51.40;;;;;;4931878;29;20187;-80
2022/04/11 08:49:03;;;;;;;3.00;2.70;;;11.80;49.20;;;;;;4926461;29;20283;-79
2022/04/11 08:51:34;;;;;;;4.30;2.63;;;11.90;50.60;;;;;;4932535;29;20191;-80
2022/04/11 08:54:04;;;;;;;4.67;3.10;;;12.00;48.60;;;;;;4937700;29;20274;-79
2022/04/11 08:56:31;;;;;;;4.33;2.60;;;12.00;48.80;;;;;;4932089;29;20226;-80
2022/04/11 08:58:57;;;;;;;3.33;2.47;;;12.20;46.80;;;;;;4927527;29;20199;-79
2022/04/11 09:01:24;;;;;;;3.13;2.60;;;12.30;46.70;;;;;;4941191;29;20223;-82
2022/04/11 09:03:50;;;;;;;6.03;2.50;;;12.50;47.70;;;;;;4949441;28;20213;-80
2022/04/11 09:06:17;;;;;;;3.43;2.53;;;12.60;46.00;;;;;;4939811;29;20556;-79
2022/04/11 09:08:53;;;;;;;2.83;2.50;;;12.70;45.60;;;;;;4926932;29;20672;-79
2022/04/11 09:11:29;;;;;;;2.40;2.13;;;12.80;44.30;;;;;;4944547;29;20218;-79
2022/04/11 09:13:55;;;;;;;3.13;2.83;;;12.80;44.80;;;;;;4944448;29;20234;-80
2022/04/11 09:16:21;;;;;;;3.53;2.77;;;13.10;46.50;;;;;;4941079;29;20200;-80
2022/04/11 09:18:52;;;;;;;4.23;2.93;;;13.20;45.70;;;;;;4946063;29;20204;-81
2022/04/11 09:21:19;;;;;;;3.57;2.40;;;13.30;44.70;;;;;;4944427;29;20203;-82
2022/04/11 09:23:47;;;;;;;2.60;2.40;;;13.50;43.90;;;;;;4936984;29;20220;-80
2022/04/11 09:26:19;;;;;;;4.10;2.10;;;13.60;42.70;;;;;;4934150;29;20203;-81
2022/04/11 09:28:57;;;;;;;2.43;2.23;;;13.70;41.50;;;;;;4948780;28;20184;-81
2022/04/11 09:31:23;;;;;;;3.27;2.30;;;13.70;42.50;;;;;;4929892;29;20270;-81
2022/04/11 09:33:48;;;;;;;2.83;2.47;;;13.80;42.10;;;;;;4945770;29;20248;-80
2022/04/11 09:36:15;;;;;;;3.97;2.80;;;14.00;40.80;;;;;;4950871;29;20279;-84
2022/04/11 09:38:41;;;;;;;3.13;2.43;;;14.20;40.20;;;;;;4933356;29;20199;-80
2022/04/11 09:41:07;;;;;;;5.37;2.30;;;14.20;40.20;;;;;;4932144;29;20638;-81
2022/04/11 09:43:34;;;;;;;2.60;2.40;;;14.30;43.80;;;;;;4932370;29;20209;-80
2022/04/11 09:46:02;;;;;;;3.30;2.60;;;14.50;38.60;;;;;;4933240;29;20197;-80
2022/04/11 09:48:37;;;;;;;3.63;2.47;;;14.50;38.80;;;;;;4936683;29;20687;-80
2022/04/11 09:51:10;;;;;;;3.27;2.33;;;14.50;38.70;;;;;;4941804;29;20195;-80
2022/04/11 09:53:36;;;;;;;2.13;1.93;;;14.60;38.00;;;;;;4924017;29;20363;-84
2022/04/11 09:56:05;;;;;;;3.30;2.40;;;14.50;36.70;;;;;;4936977;29;20281;-84
2022/04/11 09:58:36;;;;;;;3.50;2.50;;;14.40;38.70;;;;;;4944861;29;20200;-85
2022/04/11 10:01:03;;;;;;;2.67;2.47;;;14.60;36.70;;;;;;4935552;29;20211;-83
2022/04/11 10:03:30;;;;;;;2.77;2.13;;;14.70;33.80;;;;;;4931832;29;20303;-83
2022/04/11 10:05:56;;;;;;;2.63;2.10;;;14.90;34.60;;;;;;4924341;29;20214;-83
2022/04/11 10:08:27;;;;;;;2.60;2.27;;;15.00;35.00;;;;;;4931746;29;20207;-83
2022/04/11 10:10:54;;;;;;;2.50;2.30;;;15.30;36.70;;;;;;4927701;29;20199;-83
2022/04/11 10:13:20;;;;;;;3.63;2.27;;;15.50;36.00;;;;;;4932928;29;20230;-83
2022/04/11 10:15:49;;;;;;;3.23;2.47;;;15.50;36.50;;;;;;4929513;29;20196;-83
2022/04/11 10:18:24;;;;;;;2.20;2.10;;;15.80;36.50;;;;;;4933298;29;20195;-84
2022/04/11 10:20:55;;;;;;;2.40;2.20;;;15.90;36.30;;;;;;4934772;29;20575;-84
2022/04/11 10:23:44;;;;;;;2.73;2.43;;;15.80;37.20;;;;;;4936417;29;20212;-85
2022/04/11 10:26:16;;;;;;;4.73;2.83;;;16.00;37.10;;;;;;4944065;29;20256;-84
2022/04/11 10:28:46;;;;;;;3.70;3.10;;;16.10;37.90;;;;;;4934867;29;20190;-83
2022/04/11 10:31:14;;;;;;;2.93;2.70;;;16.20;36.20;;;;;;4946812;28;20211;-80
2022/04/11 10:33:47;;;;;;;4.77;3.37;;;16.40;36.20;;;;;;4943505;29;20209;-82
2022/04/11 10:36:27;;;;;;;3.77;2.40;;;16.60;36.50;;;;;;4927724;29;20197;-82
2022/04/11 10:39:14;;;;;;;3.30;2.70;;;16.50;36.80;;;;;;4943280;29;20188;-82
2022/04/11 10:41:58;;;;;;;2.50;2.30;;;16.60;35.10;;;;;;4935900;29;20292;-82
2022/04/11 10:44:30;;;;;;;2.50;2.30;;;16.70;35.10;;;;;;4934538;29;20211;-83
2022/04/11 10:47:08;;;;;;;3.33;2.43;;;16.70;34.80;;;;;;4940720;29;20321;-83
2022/04/11 10:50:01;;;;;;;2.70;2.40;;;16.90;34.10;;;;;;4935284;29;20185;-83
2022/04/11 10:52:36;;;;;;;3.20;2.50;;;17.20;34.80;;;;;;4929402;29;20200;-82
2022/04/11 10:55:09;;;;;;;2.63;2.43;;;17.20;33.80;;;;;;4934173;29;20247;-82
2022/04/11 10:57:38;;;;;;;3.03;2.40;;;17.40;33.90;;;;;;4922086;29;20548;-83
2022/04/11 11:00:17;;;;;;;5.60;2.60;;;17.60;33.00;;;;;;4927715;29;20291;-83
2022/04/11 11:02:59;;;;;;;3.77;2.30;;;17.60;35.70;;;;;;4932931;29;20618;-83
2022/04/11 11:05:48;;;;;;;2.93;2.30;;;17.70;35.30;;;;;;4929439;29;20201;-83
2022/04/11 11:08:17;;;;;;;2.67;2.25;;;17.50;32.40;;;;;;4932616;29;20194;-83
2022/04/11 11:10:45;;;;;;;2.80;2.60;;;17.90;31.20;;;;;;4932311;29;20196;-83
2022/04/11 11:13:27;;;;;;;4.03;2.67;;;18.20;31.70;;;;;;4924237;29;20230;-82
2022/04/11 11:15:59;;;;;;;2.60;2.40;;;18.30;32.20;;;;;;4938778;29;20607;-83
2022/04/11 11:18:25;;;;;;;2.90;2.60;;;18.20;32.30;;;;;;4936160;29;20192;-83
2022/04/11 11:20:54;;;;;;;3.47;2.60;;;18.20;31.40;;;;;;4930214;29;20212;-83
2022/04/11 11:23:23;;;;;;;2.80;2.60;;;18.30;31.70;;;;;;4929723;29;20265;-83
2022/04/11 11:25:50;;;;;;;2.47;2.27;;;18.40;31.10;;;;;;4928906;29;20192;-81
2022/04/11 11:28:16;;;;;;;3.07;2.37;;;18.60;31.60;;;;;;4934580;29;20198;-82
2022/04/11 11:30:42;;;;;;;2.75;2.28;;;18.90;32.10;;;;;;4937486;29;20206;-81
2022/04/11 11:33:14;;;;;;;3.88;2.55;;;19.20;31.00;;;;;;4934055;29;20219;-81
2022/04/11 11:35:51;;;;;;;2.97;2.67;;;19.10;31.30;;;;;;4932155;29;20192;-82
2022/04/11 11:38:26;;;;;;;2.75;2.55;;;19.20;29.70;;;;;;4933618;29;20216;-82
2022/04/11 11:41:01;;;;;;;4.43;3.00;;;19.50;31.30;;;;;;4936180;29;20584;-82
2022/04/11 11:43:29;;;;;;;2.88;2.45;;;19.70;29.60;;;;;;4929622;29;20627;-82
2022/04/11 11:46:00;;;;;;;2.45;2.25;;;19.70;30.20;;;;;;4928124;29;20192;-82
2022/04/11 11:48:31;;;;;;;2.72;2.50;;;19.80;29.40;;;;;;4938950;29;20189;-83
2022/04/11 11:50:59;;;;;;;2.55;2.35;;;19.80;30.00;;;;;;4937216;29;20200;-83
2022/04/11 11:53:39;;;;;;;3.70;2.65;;;20.10;29.00;;;;;;4928873;29;20215;-82
2022/04/11 11:56:07;;;;;;;3.88;2.40;;;20.00;30.70;;;;;;4930152;29;20193;-82
2022/04/11 11:58:40;;;;;;;2.25;2.10;;;20.00;29.90;;;;;;4924610;29;20279;-82
2022/04/11 12:01:11;;;;;;;2.35;2.22;;;20.10;28.50;;;;;;4930009;29;20663;-82
2022/04/11 12:04:22;;;;;;;2.63;2.42;;;20.40;30.60;;;;;;4928067;29;20208;-82
2022/04/11 12:06:27;;;;;;;2.65;2.45;;;20.30;29.20;;;;;;4933560;29;20204;-82
2022/04/11 12:09:01;;;;;;;2.75;2.55;;;20.30;28.40;;;;;;4927586;29;20219;-82
2022/04/11 12:11:29;;;;;;;4.10;2.50;;;20.40;29.60;;;;;;4935043;29;20592;-82
2022/04/11 12:14:02;;;;;;;3.00;2.15;;;20.50;28.80;;;;;;4933913;29;20224;-82
2022/04/11 12:16:29;;;;;;;2.85;2.65;;;20.80;28.70;;;;;;4927387;29;20197;-82
2022/04/11 12:18:59;;;;;;;3.35;2.65;;;20.90;28.30;;;;;;4932577;29;20185;-82
2022/04/11 12:21:44;;;;;;;2.70;2.45;;;20.70;28.10;;;;;;4932372;29;20264;-82
2022/04/11 12:24:10;;;;;;;4.25;2.38;;;20.50;30.10;;;;;;4929602;29;20475;-82
2022/04/11 12:26:39;;;;;;;2.80;2.50;;;20.90;28.80;;;;;;4932283;29;20212;-82
2022/04/11 12:29:10;;;;;;;2.60;2.35;;;21.20;28.30;;;;;;4935368;29;20859;-82
2022/04/11 12:31:39;;;;;;;3.85;2.63;;;21.10;28.60;;;;;;4941969;29;20212;-82
2022/04/11 12:34:12;;;;;;;3.15;2.38;;;21.30;28.30;;;;;;4937115;29;20216;-82
2022/04/11 12:36:58;;;;;;;3.28;2.38;;;21.50;27.70;;;;;;4936618;29;20222;-82
2022/04/11 12:39:25;;;;;;;2.90;2.70;;;21.50;27.80;;;;;;4936672;29;20188;-82
2022/04/11 12:41:51;;;;;;;4.18;2.38;;;21.80;26.50;;;;;;4939922;29;20214;-83
2022/04/11 12:44:20;;;;;;;2.75;2.40;;;21.60;27.00;;;;;;4937735;29;20269;-83
2022/04/11 12:47:06;;;;;;;5.55;2.40;;;21.40;27.10;;;;;;4941966;29;20744;-83
2022/04/11 12:49:48;;;;;;;2.72;2.45;;;21.60;27.50;;;;;;4937423;29;20687;-83
2022/04/11 12:52:20;;;;;;;2.67;2.40;;;21.80;26.60;;;;;;4943528;29;20187;-83
2022/04/11 12:54:48;;;;;;;4.47;3.30;;;22.20;27.10;;;;;;4931532;29;20235;-83
2022/04/11 12:57:22;;;;;;;2.75;2.55;;;22.50;25.90;;;;;;4934573;29;20188;-82